Tofino, Canada
Current Conditions -  °F | °C
As of 5:00 PM on Sunday 21 Dec 2014 (Local Time) from CYAZ Reporting Station
Haze Haze  
Wind Chill: 50°   Ceiling: 8000
Heat Index: 50°   Visibility: 5mi
Dew Point: 46°   Wind: 7mph
Humidity: 87%   Direction: 290°WNW
Pressure: 30"   Gusts: NA
Location:  49.15°N, 125.9°W
Report Text: CYAZ 220100Z 29006KT 5SM BR FEW010 SCT018TCU BKN080 OVC220 10/08 A3000 RMK CF2TCU2AC3CI1 LAST OBS/NEXT 221500UTC SLP158
Loading
Personal Weather Stations






























Interactive Weather Map New forecast layout! Learn more

10-Day Weather Forecast

Advertisements
Track Severe Weather on mobile